sensor_id;sensor_type;location;lat;lon;timestamp;P1;durP1;ratioP1;P2;durP2;ratioP2
52848;SDS011;38714;53.180;5.812;2023-03-23T00:00:54;3.63;;;1.77;;
52848;SDS011;38714;53.180;5.812;2023-03-23T00:03:20;2.75;;;1.08;;
52848;SDS011;38714;53.180;5.812;2023-03-23T00:05:47;3.53;;;1.42;;
52848;SDS011;38714;53.180;5.812;2023-03-23T00:08:21;3.88;;;1.50;;
52848;SDS011;38714;53.180;5.812;2023-03-23T00:10:50;3.30;;;1.60;;
52848;SDS011;38714;53.180;5.812;2023-03-23T00:13:24;4.10;;;1.48;;
52848;SDS011;38714;53.180;5.812;2023-03-23T00:15:50;4.18;;;2.20;;
52848;SDS011;38714;53.180;5.812;2023-03-23T00:18:17;5.05;;;2.00;;
52848;SDS011;38714;53.180;5.812;2023-03-23T00:20:53;4.28;;;2.03;;
52848;SDS011;38714;53.180;5.812;2023-03-23T00:23:22;5.72;;;2.30;;
52848;SDS011;38714;53.180;5.812;2023-03-23T00:25:56;7.65;;;2.90;;
52848;SDS011;38714;53.180;5.812;2023-03-23T00:28:22;8.20;;;2.60;;
52848;SDS011;38714;53.180;5.812;2023-03-23T00:30:55;8.43;;;3.10;;
52848;SDS011;38714;53.180;5.812;2023-03-23T00:33:32;8.85;;;3.65;;
52848;SDS011;38714;53.180;5.812;2023-03-23T00:36:03;8.85;;;3.28;;
52848;SDS011;38714;53.180;5.812;2023-03-23T00:38:29;9.02;;;4.75;;
52848;SDS011;38714;53.180;5.812;2023-03-23T00:40:55;9.55;;;3.88;;
52848;SDS011;38714;53.180;5.812;2023-03-23T00:43:22;9.38;;;3.88;;
52848;SDS011;38714;53.180;5.812;2023-03-23T00:45:54;12.73;;;4.88;;
52848;SDS011;38714;53.180;5.812;2023-03-23T00:48:23;9.35;;;3.72;;
52848;SDS011;38714;53.180;5.812;2023-03-23T00:50:49;10.65;;;3.90;;
52848;SDS011;38714;53.180;5.812;2023-03-23T00:53:16;6.55;;;3.05;;
52848;SDS011;38714;53.180;5.812;2023-03-23T00:55:44;8.10;;;3.70;;
52848;SDS011;38714;53.180;5.812;2023-03-23T00:58:11;9.30;;;3.20;;
52848;SDS011;38714;53.180;5.812;2023-03-23T01:00:37;8.13;;;3.28;;
52848;SDS011;38714;53.180;5.812;2023-03-23T01:03:03;9.52;;;2.60;;
52848;SDS011;38714;53.180;5.812;2023-03-23T01:05:29;5.72;;;2.30;;
52848;SDS011;38714;53.180;5.812;2023-03-23T01:08:03;7.85;;;3.33;;
52848;SDS011;38714;53.180;5.812;2023-03-23T01:10:30;7.00;;;2.92;;
52848;SDS011;38714;53.180;5.812;2023-03-23T01:13:00;9.07;;;3.45;;
52848;SDS011;38714;53.180;5.812;2023-03-23T01:15:27;7.80;;;3.00;;
52848;SDS011;38714;53.180;5.812;2023-03-23T01:17:53;5.80;;;2.88;;
52848;SDS011;38714;53.180;5.812;2023-03-23T01:20:19;8.25;;;3.55;;
52848;SDS011;38714;53.180;5.812;2023-03-23T01:22:45;6.25;;;3.70;;
52848;SDS011;38714;53.180;5.812;2023-03-23T01:25:11;8.32;;;3.80;;
52848;SDS011;38714;53.180;5.812;2023-03-23T01:27:38;5.78;;;3.30;;
52848;SDS011;38714;53.180;5.812;2023-03-23T01:30:04;7.07;;;2.97;;
52848;SDS011;38714;53.180;5.812;2023-03-23T01:32:32;4.75;;;2.80;;
52848;SDS011;38714;53.180;5.812;2023-03-23T01:34:58;7.20;;;2.90;;
52848;SDS011;38714;53.180;5.812;2023-03-23T01:37:23;8.00;;;3.05;;
52848;SDS011;38714;53.180;5.812;2023-03-23T01:39:52;6.78;;;2.60;;
52848;SDS011;38714;53.180;5.812;2023-03-23T01:42:20;5.90;;;2.72;;
52848;SDS011;38714;53.180;5.812;2023-03-23T01:47:13;8.13;;;3.13;;
52848;SDS011;38714;53.180;5.812;2023-03-23T01:49:43;6.22;;;2.50;;
52848;SDS011;38714;53.180;5.812;2023-03-23T01:52:15;10.52;;;3.50;;
52848;SDS011;38714;53.180;5.812;2023-03-23T01:54:46;6.88;;;2.70;;
52848;SDS011;38714;53.180;5.812;2023-03-23T01:57:17;8.02;;;2.85;;
52848;SDS011;38714;53.180;5.812;2023-03-23T01:59:45;4.50;;;2.42;;
52848;SDS011;38714;53.180;5.812;2023-03-23T02:02:14;6.88;;;2.60;;
52848;SDS011;38714;53.180;5.812;2023-03-23T02:04:41;4.30;;;2.22;;
52848;SDS011;38714;53.180;5.812;2023-03-23T02:07:09;5.65;;;2.17;;
52848;SDS011;38714;53.180;5.812;2023-03-23T02:09:35;4.15;;;1.77;;
52848;SDS011;38714;53.180;5.812;2023-03-23T02:12:02;4.22;;;2.13;;
52848;SDS011;38714;53.180;5.812;2023-03-23T02:14:27;4.63;;;2.40;;
52848;SDS011;38714;53.180;5.812;2023-03-23T02:22:32;4.50;;;2.08;;
52848;SDS011;38714;53.180;5.812;2023-03-23T02:33:27;3.78;;;1.40;;
52848;SDS011;38714;53.180;5.812;2023-03-23T02:39:06;3.45;;;1.40;;
52848;SDS011;38714;53.180;5.812;2023-03-23T02:41:51;2.25;;;1.30;;
52848;SDS011;38714;53.180;5.812;2023-03-23T02:44:31;7.72;;;2.13;;
52848;SDS011;38714;53.180;5.812;2023-03-23T02:47:00;3.30;;;1.80;;
52848;SDS011;38714;53.180;5.812;2023-03-23T02:49:31;2.20;;;1.27;;
52848;SDS011;38714;53.180;5.812;2023-03-23T02:52:01;2.97;;;1.17;;
52848;SDS011;38714;53.180;5.812;2023-03-23T02:54:29;2.70;;;1.05;;
52848;SDS011;38714;53.180;5.812;2023-03-23T02:56:55;2.13;;;1.10;;
52848;SDS011;38714;53.180;5.812;2023-03-23T02:59:22;2.80;;;1.23;;
52848;SDS011;38714;53.180;5.812;2023-03-23T03:02:33;2.38;;;1.35;;
52848;SDS011;38714;53.180;5.812;2023-03-23T03:04:33;3.13;;;1.50;;
52848;SDS011;38714;53.180;5.812;2023-03-23T03:07:06;1.73;;;1.33;;
52848;SDS011;38714;53.180;5.812;2023-03-23T03:12:36;6.93;;;2.00;;
52848;SDS011;38714;53.180;5.812;2023-03-23T03:15:09;2.40;;;1.23;;
52848;SDS011;38714;53.180;5.812;2023-03-23T03:17:58;2.45;;;1.40;;
52848;SDS011;38714;53.180;5.812;2023-03-23T03:20:28;1.60;;;1.25;;
52848;SDS011;38714;53.180;5.812;2023-03-23T03:22:56;3.90;;;1.23;;
52848;SDS011;38714;53.180;5.812;2023-03-23T03:25:23;3.28;;;1.00;;
52848;SDS011;38714;53.180;5.812;2023-03-23T03:27:52;1.77;;;1.27;;
52848;SDS011;38714;53.180;5.812;2023-03-23T03:30:19;2.40;;;1.15;;
52848;SDS011;38714;53.180;5.812;2023-03-23T03:32:50;2.17;;;0.50;;
52848;SDS011;38714;53.180;5.812;2023-03-23T03:35:18;4.10;;;1.02;;
52848;SDS011;38714;53.180;5.812;2023-03-23T03:37:48;1.95;;;0.90;;
52848;SDS011;38714;53.180;5.812;2023-03-23T03:40:17;3.17;;;1.15;;
52848;SDS011;38714;53.180;5.812;2023-03-23T03:42:45;2.40;;;1.52;;
52848;SDS011;38714;53.180;5.812;2023-03-23T03:45:15;4.07;;;1.42;;
52848;SDS011;38714;53.180;5.812;2023-03-23T03:47:42;3.28;;;1.42;;
52848;SDS011;38714;53.180;5.812;2023-03-23T03:50:08;4.00;;;1.20;;
52848;SDS011;38714;53.180;5.812;2023-03-23T03:52:35;2.53;;;1.20;;
52848;SDS011;38714;53.180;5.812;2023-03-23T03:55:01;2.67;;;1.17;;
52848;SDS011;38714;53.180;5.812;2023-03-23T03:57:27;2.65;;;1.20;;
52848;SDS011;38714;53.180;5.812;2023-03-23T03:59:52;1.02;;;0.70;;
52848;SDS011;38714;53.180;5.812;2023-03-23T04:02:18;1.73;;;1.08;;
52848;SDS011;38714;53.180;5.812;2023-03-23T04:04:47;4.45;;;1.15;;
52848;SDS011;38714;53.180;5.812;2023-03-23T04:07:14;1.10;;;0.70;;
52848;SDS011;38714;53.180;5.812;2023-03-23T04:09:41;0.73;;;0.68;;
52848;SDS011;38714;53.180;5.812;2023-03-23T04:12:08;1.98;;;1.10;;
52848;SDS011;38714;53.180;5.812;2023-03-23T04:14:34;1.85;;;0.93;;
52848;SDS011;38714;53.180;5.812;2023-03-23T04:16:59;5.15;;;1.10;;
52848;SDS011;38714;53.180;5.812;2023-03-23T04:19:25;2.47;;;0.75;;
52848;SDS011;38714;53.180;5.812;2023-03-23T04:21:53;3.25;;;0.82;;
52848;SDS011;38714;53.180;5.812;2023-03-23T04:24:20;1.02;;;0.40;;
52848;SDS011;38714;53.180;5.812;2023-03-23T04:26:49;4.28;;;0.98;;
52848;SDS011;38714;53.180;5.812;2023-03-23T04:29:17;4.10;;;0.70;;
52848;SDS011;38714;53.180;5.812;2023-03-23T04:31:43;4.70;;;0.68;;
52848;SDS011;38714;53.180;5.812;2023-03-23T04:34:10;0.98;;;0.60;;
52848;SDS011;38714;53.180;5.812;2023-03-23T04:36:38;3.13;;;0.80;;
52848;SDS011;38714;53.180;5.812;2023-03-23T04:39:05;3.00;;;0.60;;
52848;SDS011;38714;53.180;5.812;2023-03-23T04:41:34;6.15;;;1.02;;
52848;SDS011;38714;53.180;5.812;2023-03-23T04:44:03;2.08;;;0.80;;
52848;SDS011;38714;53.180;5.812;2023-03-23T04:46:29;1.20;;;0.60;;
52848;SDS011;38714;53.180;5.812;2023-03-23T04:48:55;1.30;;;0.50;;
52848;SDS011;38714;53.180;5.812;2023-03-23T04:51:23;2.80;;;0.60;;
52848;SDS011;38714;53.180;5.812;2023-03-23T04:53:51;2.25;;;0.57;;
52848;SDS011;38714;53.180;5.812;2023-03-23T04:56:17;2.97;;;0.50;;
52848;SDS011;38714;53.180;5.812;2023-03-23T04:58:43;1.08;;;0.60;;
52848;SDS011;38714;53.180;5.812;2023-03-23T05:01:10;3.13;;;0.50;;
52848;SDS011;38714;53.180;5.812;2023-03-23T05:03:39;1.17;;;1.10;;
52848;SDS011;38714;53.180;5.812;2023-03-23T05:06:05;3.95;;;0.77;;
52848;SDS011;38714;53.180;5.812;2023-03-23T05:08:31;2.13;;;1.42;;
52848;SDS011;38714;53.180;5.812;2023-03-23T05:10:58;2.03;;;0.63;;
52848;SDS011;38714;53.180;5.812;2023-03-23T05:13:25;3.70;;;1.10;;
52848;SDS011;38714;53.180;5.812;2023-03-23T05:15:52;1.35;;;0.73;;
52848;SDS011;38714;53.180;5.812;2023-03-23T05:18:17;4.28;;;0.55;;
52848;SDS011;38714;53.180;5.812;2023-03-23T05:20:45;1.60;;;0.50;;
52848;SDS011;38714;53.180;5.812;2023-03-23T05:23:11;5.15;;;1.35;;
52848;SDS011;38714;53.180;5.812;2023-03-23T05:25:37;3.15;;;1.15;;
52848;SDS011;38714;53.180;5.812;2023-03-23T05:28:11;2.00;;;0.38;;
52848;SDS011;38714;53.180;5.812;2023-03-23T05:30:37;3.42;;;0.85;;
52848;SDS011;38714;53.180;5.812;2023-03-23T05:33:03;8.35;;;0.90;;
52848;SDS011;38714;53.180;5.812;2023-03-23T05:35:29;3.40;;;0.80;;
52848;SDS011;38714;53.180;5.812;2023-03-23T05:37:56;1.10;;;0.77;;
52848;SDS011;38714;53.180;5.812;2023-03-23T05:40:22;3.85;;;0.75;;
52848;SDS011;38714;53.180;5.812;2023-03-23T05:42:50;3.50;;;0.68;;
52848;SDS011;38714;53.180;5.812;2023-03-23T05:45:16;1.67;;;0.63;;
52848;SDS011;38714;53.180;5.812;2023-03-23T05:47:43;2.97;;;0.70;;
52848;SDS011;38714;53.180;5.812;2023-03-23T05:50:08;3.35;;;0.70;;
52848;SDS011;38714;53.180;5.812;2023-03-23T05:52:35;2.70;;;0.52;;
52848;SDS011;38714;53.180;5.812;2023-03-23T05:55:02;4.10;;;0.73;;
52848;SDS011;38714;53.180;5.812;2023-03-23T05:57:28;1.40;;;0.60;;
52848;SDS011;38714;53.180;5.812;2023-03-23T05:59:55;1.45;;;0.30;;
52848;SDS011;38714;53.180;5.812;2023-03-23T06:02:21;0.30;;;0.20;;
52848;SDS011;38714;53.180;5.812;2023-03-23T06:04:48;0.35;;;0.25;;
52848;SDS011;38714;53.180;5.812;2023-03-23T06:07:14;1.58;;;0.40;;
52848;SDS011;38714;53.180;5.812;2023-03-23T06:09:40;3.03;;;0.50;;
52848;SDS011;38714;53.180;5.812;2023-03-23T06:12:06;2.15;;;0.43;;
52848;SDS011;38714;53.180;5.812;2023-03-23T06:14:32;5.15;;;0.47;;
52848;SDS011;38714;53.180;5.812;2023-03-23T06:16:58;1.30;;;0.30;;
52848;SDS011;38714;53.180;5.812;2023-03-23T06:19:24;2.15;;;0.40;;
52848;SDS011;38714;53.180;5.812;2023-03-23T06:21:51;0.32;;;0.28;;
52848;SDS011;38714;53.180;5.812;2023-03-23T06:24:19;0.82;;;0.30;;
52848;SDS011;38714;53.180;5.812;2023-03-23T06:26:44;3.72;;;1.08;;
52848;SDS011;38714;53.180;5.812;2023-03-23T06:29:10;0.68;;;0.68;;
52848;SDS011;38714;53.180;5.812;2023-03-23T06:31:49;1.25;;;0.38;;
52848;SDS011;38714;53.180;5.812;2023-03-23T06:34:19;1.30;;;0.40;;
52848;SDS011;38714;53.180;5.812;2023-03-23T06:36:45;1.02;;;0.50;;
52848;SDS011;38714;53.180;5.812;2023-03-23T06:39:11;1.83;;;0.47;;
52848;SDS011;38714;53.180;5.812;2023-03-23T06:41:38;1.98;;;0.45;;
52848;SDS011;38714;53.180;5.812;2023-03-23T06:44:05;2.95;;;0.80;;
52848;SDS011;38714;53.180;5.812;2023-03-23T06:46:31;5.50;;;0.82;;
52848;SDS011;38714;53.180;5.812;2023-03-23T06:48:57;1.33;;;0.40;;
52848;SDS011;38714;53.180;5.812;2023-03-23T06:51:22;6.75;;;1.15;;
52848;SDS011;38714;53.180;5.812;2023-03-23T06:53:48;3.92;;;0.80;;
52848;SDS011;38714;53.180;5.812;2023-03-23T06:56:14;4.95;;;0.77;;
52848;SDS011;38714;53.180;5.812;2023-03-23T06:58:40;3.58;;;1.10;;
52848;SDS011;38714;53.180;5.812;2023-03-23T07:01:06;5.57;;;0.52;;
52848;SDS011;38714;53.180;5.812;2023-03-23T07:03:34;4.65;;;1.60;;
52848;SDS011;38714;53.180;5.812;2023-03-23T07:06:00;10.35;;;1.48;;
52848;SDS011;38714;53.180;5.812;2023-03-23T07:08:26;8.82;;;1.30;;
52848;SDS011;38714;53.180;5.812;2023-03-23T07:10:52;5.72;;;0.88;;
52848;SDS011;38714;53.180;5.812;2023-03-23T07:13:19;3.17;;;0.65;;
52848;SDS011;38714;53.180;5.812;2023-03-23T07:15:45;4.95;;;0.77;;
52848;SDS011;38714;53.180;5.812;2023-03-23T07:18:11;6.93;;;1.05;;
52848;SDS011;38714;53.180;5.812;2023-03-23T07:20:37;9.90;;;1.10;;
52848;SDS011;38714;53.180;5.812;2023-03-23T07:23:03;3.45;;;1.05;;
52848;SDS011;38714;53.180;5.812;2023-03-23T07:25:30;4.88;;;0.95;;
52848;SDS011;38714;53.180;5.812;2023-03-23T07:27:58;2.63;;;0.50;;
52848;SDS011;38714;53.180;5.812;2023-03-23T07:30:27;0.90;;;0.65;;
52848;SDS011;38714;53.180;5.812;2023-03-23T07:32:54;5.63;;;0.85;;
52848;SDS011;38714;53.180;5.812;2023-03-23T07:35:24;6.40;;;1.20;;
52848;SDS011;38714;53.180;5.812;2023-03-23T07:37:51;3.65;;;1.00;;
52848;SDS011;38714;53.180;5.812;2023-03-23T07:40:18;4.13;;;2.35;;
52848;SDS011;38714;53.180;5.812;2023-03-23T07:42:44;9.25;;;1.23;;
52848;SDS011;38714;53.180;5.812;2023-03-23T07:45:14;3.85;;;0.75;;
52848;SDS011;38714;53.180;5.812;2023-03-23T07:47:40;5.82;;;0.93;;
52848;SDS011;38714;53.180;5.812;2023-03-23T07:50:07;4.38;;;0.60;;
52848;SDS011;38714;53.180;5.812;2023-03-23T07:52:36;2.35;;;0.50;;
52848;SDS011;38714;53.180;5.812;2023-03-23T07:55:02;7.75;;;1.58;;
52848;SDS011;38714;53.180;5.812;2023-03-23T07:57:30;4.97;;;1.30;;
52848;SDS011;38714;53.180;5.812;2023-03-23T07:59:57;9.48;;;1.85;;
52848;SDS011;38714;53.180;5.812;2023-03-23T08:02:23;12.50;;;1.65;;
52848;SDS011;38714;53.180;5.812;2023-03-23T08:04:49;4.53;;;1.17;;
52848;SDS011;38714;53.180;5.812;2023-03-23T08:07:15;2.85;;;1.00;;
52848;SDS011;38714;53.180;5.812;2023-03-23T08:09:42;4.72;;;0.77;;
52848;SDS011;38714;53.180;5.812;2023-03-23T08:12:08;3.95;;;0.98;;
52848;SDS011;38714;53.180;5.812;2023-03-23T08:14:33;7.00;;;1.10;;
52848;SDS011;38714;53.180;5.812;2023-03-23T08:16:59;5.53;;;1.45;;
52848;SDS011;38714;53.180;5.812;2023-03-23T08:19:25;3.47;;;0.80;;
52848;SDS011;38714;53.180;5.812;2023-03-23T08:21:51;8.18;;;1.23;;
52848;SDS011;38714;53.180;5.812;2023-03-23T08:24:17;4.28;;;1.00;;
52848;SDS011;38714;53.180;5.812;2023-03-23T08:26:43;2.03;;;0.65;;
52848;SDS011;38714;53.180;5.812;2023-03-23T08:29:09;4.20;;;0.82;;
52848;SDS011;38714;53.180;5.812;2023-03-23T08:31:35;1.38;;;1.25;;
52848;SDS011;38714;53.180;5.812;2023-03-23T08:34:03;4.20;;;1.67;;
52848;SDS011;38714;53.180;5.812;2023-03-23T08:36:33;6.18;;;0.90;;
52848;SDS011;38714;53.180;5.812;2023-03-23T08:38:59;1.77;;;1.00;;
52848;SDS011;38714;53.180;5.812;2023-03-23T08:41:25;7.55;;;1.00;;
52848;SDS011;38714;53.180;5.812;2023-03-23T08:43:51;3.35;;;0.85;;
52848;SDS011;38714;53.180;5.812;2023-03-23T08:46:17;1.92;;;0.55;;
52848;SDS011;38714;53.180;5.812;2023-03-23T08:48:44;6.38;;;0.93;;
52848;SDS011;38714;53.180;5.812;2023-03-23T08:51:11;1.48;;;0.90;;
52848;SDS011;38714;53.180;5.812;2023-03-23T08:53:37;5.90;;;1.83;;
52848;SDS011;38714;53.180;5.812;2023-03-23T08:56:03;4.30;;;1.25;;
52848;SDS011;38714;53.180;5.812;2023-03-23T08:58:34;5.63;;;0.98;;
52848;SDS011;38714;53.180;5.812;2023-03-23T09:01:00;4.72;;;1.00;;
52848;SDS011;38714;53.180;5.812;2023-03-23T09:03:26;1.58;;;0.60;;
52848;SDS011;38714;53.180;5.812;2023-03-23T09:05:53;3.90;;;0.70;;
52848;SDS011;38714;53.180;5.812;2023-03-23T09:08:18;3.58;;;1.17;;
52848;SDS011;38714;53.180;5.812;2023-03-23T09:10:44;8.75;;;1.27;;
52848;SDS011;38714;53.180;5.812;2023-03-23T09:13:10;5.20;;;0.80;;
52848;SDS011;38714;53.180;5.812;2023-03-23T09:15:36;2.33;;;0.68;;
52848;SDS011;38714;53.180;5.812;2023-03-23T09:18:01;2.92;;;0.82;;
52848;SDS011;38714;53.180;5.812;2023-03-23T09:20:28;1.70;;;0.60;;
52848;SDS011;38714;53.180;5.812;2023-03-23T09:22:55;6.43;;;1.20;;
52848;SDS011;38714;53.180;5.812;2023-03-23T09:25:23;2.17;;;0.68;;
52848;SDS011;38714;53.180;5.812;2023-03-23T09:27:53;3.75;;;0.88;;
52848;SDS011;38714;53.180;5.812;2023-03-23T09:30:24;4.10;;;0.90;;
52848;SDS011;38714;53.180;5.812;2023-03-23T09:32:54;8.13;;;1.00;;
52848;SDS011;38714;53.180;5.812;2023-03-23T09:35:20;3.63;;;1.17;;
52848;SDS011;38714;53.180;5.812;2023-03-23T09:37:49;4.65;;;0.82;;
52848;SDS011;38714;53.180;5.812;2023-03-23T09:40:22;2.00;;;0.80;;
52848;SDS011;38714;53.180;5.812;2023-03-23T09:43:09;5.80;;;1.35;;
52848;SDS011;38714;53.180;5.812;2023-03-23T09:49:25;4.18;;;1.15;;
52848;SDS011;38714;53.180;5.812;2023-03-23T09:52:04;3.17;;;0.50;;
52848;SDS011;38714;53.180;5.812;2023-03-23T09:57:03;7.63;;;1.13;;
52848;SDS011;38714;53.180;5.812;2023-03-23T10:05:25;4.95;;;0.60;;
52848;SDS011;38714;53.180;5.812;2023-03-23T10:07:56;8.23;;;1.85;;
52848;SDS011;38714;53.180;5.812;2023-03-23T10:10:23;3.97;;;1.17;;
52848;SDS011;38714;53.180;5.812;2023-03-23T10:13:13;7.93;;;1.25;;
52848;SDS011;38714;53.180;5.812;2023-03-23T10:15:47;9.77;;;1.40;;
52848;SDS011;38714;53.180;5.812;2023-03-23T10:18:26;3.42;;;0.55;;
52848;SDS011;38714;53.180;5.812;2023-03-23T10:20:57;3.63;;;0.70;;
52848;SDS011;38714;53.180;5.812;2023-03-23T10:29:20;7.05;;;1.05;;
52848;SDS011;38714;53.180;5.812;2023-03-23T10:31:54;1.80;;;1.02;;
52848;SDS011;38714;53.180;5.812;2023-03-23T10:34:31;4.80;;;0.50;;
52848;SDS011;38714;53.180;5.812;2023-03-23T10:37:08;2.78;;;1.17;;
52848;SDS011;38714;53.180;5.812;2023-03-23T10:39:51;6.70;;;0.88;;
52848;SDS011;38714;53.180;5.812;2023-03-23T10:42:28;4.63;;;1.13;;
52848;SDS011;38714;53.180;5.812;2023-03-23T10:44:57;3.00;;;1.08;;
52848;SDS011;38714;53.180;5.812;2023-03-23T10:47:44;3.50;;;0.82;;
52848;SDS011;38714;53.180;5.812;2023-03-23T10:50:15;5.03;;;0.63;;
52848;SDS011;38714;53.180;5.812;2023-03-23T10:52:46;5.32;;;0.70;;
52848;SDS011;38714;53.180;5.812;2023-03-23T10:55:16;4.60;;;0.80;;
52848;SDS011;38714;53.180;5.812;2023-03-23T10:57:44;4.45;;;1.13;;
52848;SDS011;38714;53.180;5.812;2023-03-23T11:00:19;2.00;;;0.77;;
52848;SDS011;38714;53.180;5.812;2023-03-23T11:03:01;2.55;;;0.65;;
52848;SDS011;38714;53.180;5.812;2023-03-23T11:05:36;4.03;;;0.73;;
52848;SDS011;38714;53.180;5.812;2023-03-23T11:08:22;1.67;;;0.65;;
52848;SDS011;38714;53.180;5.812;2023-03-23T11:13:44;4.65;;;0.50;;
52848;SDS011;38714;53.180;5.812;2023-03-23T11:16:25;3.00;;;0.60;;
52848;SDS011;38714;53.180;5.812;2023-03-23T11:18:59;2.78;;;0.77;;
52848;SDS011;38714;53.180;5.812;2023-03-23T11:21:26;4.05;;;0.77;;
52848;SDS011;38714;53.180;5.812;2023-03-23T11:23:53;2.40;;;0.75;;
52848;SDS011;38714;53.180;5.812;2023-03-23T11:31:26;2.97;;;0.63;;
52848;SDS011;38714;53.180;5.812;2023-03-23T11:34:21;6.93;;;1.30;;
52848;SDS011;38714;53.180;5.812;2023-03-23T11:36:57;2.28;;;0.70;;
52848;SDS011;38714;53.180;5.812;2023-03-23T11:39:28;2.92;;;0.60;;
52848;SDS011;38714;53.180;5.812;2023-03-23T11:41:59;2.30;;;0.70;;
52848;SDS011;38714;53.180;5.812;2023-03-23T11:44:41;10.65;;;1.35;;
52848;SDS011;38714;53.180;5.812;2023-03-23T11:47:20;3.10;;;0.40;;
52848;SDS011;38714;53.180;5.812;2023-03-23T11:50:14;4.00;;;0.57;;
52848;SDS011;38714;53.180;5.812;2023-03-23T11:55:49;3.10;;;0.60;;
52848;SDS011;38714;53.180;5.812;2023-03-23T11:58:20;4.93;;;0.75;;
52848;SDS011;38714;53.180;5.812;2023-03-23T12:00:56;2.17;;;0.47;;
52848;SDS011;38714;53.180;5.812;2023-03-23T12:03:24;2.20;;;0.75;;
52848;SDS011;38714;53.180;5.812;2023-03-23T12:06:06;1.97;;;0.77;;
52848;SDS011;38714;53.180;5.812;2023-03-23T12:08:43;1.95;;;0.50;;
52848;SDS011;38714;53.180;5.812;2023-03-23T12:11:32;5.35;;;0.88;;
52848;SDS011;38714;53.180;5.812;2023-03-23T12:14:23;3.30;;;0.73;;
52848;SDS011;38714;53.180;5.812;2023-03-23T12:33:13;2.38;;;0.55;;
52848;SDS011;38714;53.180;5.812;2023-03-23T12:35:52;2.97;;;0.52;;
52848;SDS011;38714;53.180;5.812;2023-03-23T12:38:27;0.60;;;0.32;;
52848;SDS011;38714;53.180;5.812;2023-03-23T12:41:05;3.38;;;0.50;;
52848;SDS011;38714;53.180;5.812;2023-03-23T12:57:47;0.80;;;0.75;;
52848;SDS011;38714;53.180;5.812;2023-03-23T13:00:25;2.67;;;0.70;;
52848;SDS011;38714;53.180;5.812;2023-03-23T13:03:11;4.65;;;0.55;;
52848;SDS011;38714;53.180;5.812;2023-03-23T13:05:44;2.67;;;0.50;;
52848;SDS011;38714;53.180;5.812;2023-03-23T13:08:31;4.53;;;0.88;;
52848;SDS011;38714;53.180;5.812;2023-03-23T13:11:03;1.60;;;0.55;;
52848;SDS011;38714;53.180;5.812;2023-03-23T13:21:31;6.00;;;1.13;;
52848;SDS011;38714;53.180;5.812;2023-03-23T13:24:01;0.50;;;0.50;;
52848;SDS011;38714;53.180;5.812;2023-03-23T13:26:36;2.40;;;0.75;;
52848;SDS011;38714;53.180;5.812;2023-03-23T13:29:20;4.18;;;0.68;;
52848;SDS011;38714;53.180;5.812;2023-03-23T13:31:49;2.00;;;0.40;;
52848;SDS011;38714;53.180;5.812;2023-03-23T13:36:55;1.50;;;0.60;;
52848;SDS011;38714;53.180;5.812;2023-03-23T13:39:29;2.22;;;0.73;;
52848;SDS011;38714;53.180;5.812;2023-03-23T13:50:02;5.97;;;0.75;;
52848;SDS011;38714;53.180;5.812;2023-03-23T13:57:51;0.80;;;0.35;;
52848;SDS011;38714;53.180;5.812;2023-03-23T14:03:18;0.98;;;0.52;;
52848;SDS011;38714;53.180;5.812;2023-03-23T14:08:21;4.78;;;1.17;;
52848;SDS011;38714;53.180;5.812;2023-03-23T14:11:00;3.60;;;0.95;;
52848;SDS011;38714;53.180;5.812;2023-03-23T14:13:36;3.20;;;0.80;;
52848;SDS011;38714;53.180;5.812;2023-03-23T14:16:03;4.18;;;0.70;;
52848;SDS011;38714;53.180;5.812;2023-03-23T14:18:38;4.28;;;0.80;;
52848;SDS011;38714;53.180;5.812;2023-03-23T14:21:11;1.85;;;0.70;;
52848;SDS011;38714;53.180;5.812;2023-03-23T14:23:40;1.77;;;0.35;;
52848;SDS011;38714;53.180;5.812;2023-03-23T14:26:10;2.50;;;0.35;;
52848;SDS011;38714;53.180;5.812;2023-03-23T14:28:41;0.80;;;0.52;;
52848;SDS011;38714;53.180;5.812;2023-03-23T14:31:14;2.85;;;0.70;;
52848;SDS011;38714;53.180;5.812;2023-03-23T14:33:45;2.20;;;0.93;;
52848;SDS011;38714;53.180;5.812;2023-03-23T14:36:13;2.17;;;0.38;;
52848;SDS011;38714;53.180;5.812;2023-03-23T14:38:40;1.60;;;0.73;;
52848;SDS011;38714;53.180;5.812;2023-03-23T14:41:05;0.63;;;0.40;;
52848;SDS011;38714;53.180;5.812;2023-03-23T14:43:32;2.15;;;1.30;;
52848;SDS011;38714;53.180;5.812;2023-03-23T14:46:00;5.90;;;0.52;;
52848;SDS011;38714;53.180;5.812;2023-03-23T14:48:30;1.92;;;0.50;;
52848;SDS011;38714;53.180;5.812;2023-03-23T14:51:00;0.80;;;0.52;;
52848;SDS011;38714;53.180;5.812;2023-03-23T14:53:35;1.90;;;0.70;;
52848;SDS011;38714;53.180;5.812;2023-03-23T14:56:16;0.32;;;0.32;;
52848;SDS011;38714;53.180;5.812;2023-03-23T14:58:50;3.28;;;0.65;;
52848;SDS011;38714;53.180;5.812;2023-03-23T15:01:27;1.33;;;0.65;;
52848;SDS011;38714;53.180;5.812;2023-03-23T15:03:59;0.80;;;0.80;;
52848;SDS011;38714;53.180;5.812;2023-03-23T15:06:32;2.03;;;0.73;;
52848;SDS011;38714;53.180;5.812;2023-03-23T15:09:02;2.45;;;0.63;;
52848;SDS011;38714;53.180;5.812;2023-03-23T15:11:35;2.47;;;0.60;;
52848;SDS011;38714;53.180;5.812;2023-03-23T15:14:10;3.33;;;0.40;;
52848;SDS011;38714;53.180;5.812;2023-03-23T15:16:48;2.55;;;0.40;;
52848;SDS011;38714;53.180;5.812;2023-03-23T15:19:40;1.35;;;0.90;;
52848;SDS011;38714;53.180;5.812;2023-03-23T15:24:52;1.45;;;0.50;;
52848;SDS011;38714;53.180;5.812;2023-03-23T15:27:30;1.48;;;0.47;;
52848;SDS011;38714;53.180;5.812;2023-03-23T15:29:59;1.98;;;0.30;;
52848;SDS011;38714;53.180;5.812;2023-03-23T15:32:38;2.08;;;0.73;;
52848;SDS011;38714;53.180;5.812;2023-03-23T15:35:12;1.55;;;0.68;;
52848;SDS011;38714;53.180;5.812;2023-03-23T15:37:42;1.83;;;0.70;;
52848;SDS011;38714;53.180;5.812;2023-03-23T15:40:16;2.42;;;0.57;;
52848;SDS011;38714;53.180;5.812;2023-03-23T15:42:44;6.10;;;0.90;;
52848;SDS011;38714;53.180;5.812;2023-03-23T15:50:18;1.50;;;0.57;;
52848;SDS011;38714;53.180;5.812;2023-03-23T15:52:46;6.55;;;0.63;;
52848;SDS011;38714;53.180;5.812;2023-03-23T15:55:19;3.70;;;0.60;;
52848;SDS011;38714;53.180;5.812;2023-03-23T16:00:10;4.03;;;0.70;;
52848;SDS011;38714;53.180;5.812;2023-03-23T16:02:36;2.67;;;0.88;;
52848;SDS011;38714;53.180;5.812;2023-03-23T16:05:02;7.18;;;0.60;;
52848;SDS011;38714;53.180;5.812;2023-03-23T16:07:29;2.22;;;0.40;;
52848;SDS011;38714;53.180;5.812;2023-03-23T16:09:55;6.10;;;1.38;;
52848;SDS011;38714;53.180;5.812;2023-03-23T16:12:20;1.88;;;0.93;;
52848;SDS011;38714;53.180;5.812;2023-03-23T16:14:46;3.60;;;0.98;;
52848;SDS011;38714;53.180;5.812;2023-03-23T16:17:14;2.75;;;0.47;;
52848;SDS011;38714;53.180;5.812;2023-03-23T16:19:42;6.57;;;0.60;;
52848;SDS011;38714;53.180;5.812;2023-03-23T16:22:08;3.03;;;1.13;;
52848;SDS011;38714;53.180;5.812;2023-03-23T16:24:34;1.83;;;0.95;;
52848;SDS011;38714;53.180;5.812;2023-03-23T16:27:00;3.00;;;1.38;;
52848;SDS011;38714;53.180;5.812;2023-03-23T16:29:25;8.77;;;3.97;;
52848;SDS011;38714;53.180;5.812;2023-03-23T16:31:51;4.10;;;1.70;;
52848;SDS011;38714;53.180;5.812;2023-03-23T16:34:17;7.07;;;1.83;;
52848;SDS011;38714;53.180;5.812;2023-03-23T16:36:43;10.27;;;3.42;;
52848;SDS011;38714;53.180;5.812;2023-03-23T16:39:10;13.07;;;2.72;;
52848;SDS011;38714;53.180;5.812;2023-03-23T16:41:36;10.43;;;3.63;;
52848;SDS011;38714;53.180;5.812;2023-03-23T16:44:02;8.68;;;2.78;;
52848;SDS011;38714;53.180;5.812;2023-03-23T16:46:27;7.90;;;1.95;;
52848;SDS011;38714;53.180;5.812;2023-03-23T16:48:54;10.93;;;2.97;;
52848;SDS011;38714;53.180;5.812;2023-03-23T16:51:20;14.30;;;2.92;;
52848;SDS011;38714;53.180;5.812;2023-03-23T16:53:46;4.13;;;2.28;;
52848;SDS011;38714;53.180;5.812;2023-03-23T16:56:12;5.45;;;1.50;;
52848;SDS011;38714;53.180;5.812;2023-03-23T16:58:38;4.50;;;1.92;;
52848;SDS011;38714;53.180;5.812;2023-03-23T17:01:05;3.50;;;1.30;;
52848;SDS011;38714;53.180;5.812;2023-03-23T17:03:31;5.28;;;1.60;;